Time;durP1;ratioP1;P1;durP2;ratioP2;P2;SDS_P1;SDS_P2;PMS_P1;PMS_P2;Temp;Humidity;BMP_temperature;BMP_pressure;BME280_temperature;BME280_humidity;BME280_pressure;Samples;Min_cycle;Max_cycle;Signal;HPM_P1;HPM_P2
2020/12/12 00:01:46;;;;;;;2;1.5;;;;;;;;;;;;;
2020/12/12 00:04:11;;;;;;;1.8;1.3;;;;;;;;;;;;;
2020/12/12 00:06:37;;;;;;;2.6;1.3;;;;;;;;;;;;;
2020/12/12 00:09:02;;;;;;;1.5;0.9;;;;;;;;;;;;;
2020/12/12 00:11:27;;;;;;;1.7;1.2;;;;;;;;;;;;;
2020/12/12 00:13:52;;;;;;;2.8;1.7;;;;;;;;;;;;;
2020/12/12 00:16:17;;;;;;;2.5;1.5;;;;;;;;;;;;;
2020/12/12 00:18:42;;;;;;;2.9;1.3;;;;;;;;;;;;;
2020/12/12 00:21:08;;;;;;;3.3;1.8;;;;;;;;;;;;;
2020/12/12 00:23:33;;;;;;;6;2.8;;;;;;;;;;;;;
2020/12/12 00:25:58;;;;;;;6.5;1.8;;;;;;;;;;;;;
2020/12/12 00:28:23;;;;;;;2.9;1.8;;;;;;;;;;;;;
2020/12/12 00:30:50;;;;;;;2.4;1.4;;;;;;;;;;;;;
2020/12/12 00:33:15;;;;;;;2.6;1.6;;;;;;;;;;;;;
2020/12/12 00:35:41;;;;;;;2.8;1.2;;;;;;;;;;;;;
2020/12/12 00:38:06;;;;;;;1.6;1.2;;;;;;;;;;;;;
2020/12/12 00:40:35;;;;;;;5;1.5;;;;;;;;;;;;;
2020/12/12 00:43:00;;;;;;;4.5;1.7;;;;;;;;;;;;;
2020/12/12 00:45:26;;;;;;;2.7;1.5;;;;;;;;;;;;;
2020/12/12 00:47:51;;;;;;;2.2;1.2;;;;;;;;;;;;;
2020/12/12 00:50:16;;;;;;;1;0.8;;;;;;;;;;;;;
2020/12/12 00:52:41;;;;;;;1.4;1;;;;;;;;;;;;;
2020/12/12 00:55:09;;;;;;;1.1;1;;;;;;;;;;;;;
2020/12/12 00:57:34;;;;;;;1.9;1.2;;;;;;;;;;;;;
2020/12/12 00:59:59;;;;;;;1;0.9;;;;;;;;;;;;;
2020/12/12 01:02:24;;;;;;;1.3;0.9;;;;;;;;;;;;;
2020/12/12 01:04:50;;;;;;;3.9;1.8;;;;;;;;;;;;;
2020/12/12 01:07:15;;;;;;;3.4;1.6;;;;;;;;;;;;;
2020/12/12 01:09:42;;;;;;;1.6;1.2;;;;;;;;;;;;;
2020/12/12 01:12:07;;;;;;;1.7;1.4;;;;;;;;;;;;;
2020/12/12 01:14:33;;;;;;;2.1;1;;;;;;;;;;;;;
2020/12/12 01:16:58;;;;;;;1;0.9;;;;;;;;;;;;;
2020/12/12 01:19:24;;;;;;;0.8;0.8;;;;;;;;;;;;;
2020/12/12 01:21:50;;;;;;;2.4;1.2;;;;;;;;;;;;;
2020/12/12 01:24:16;;;;;;;3.1;1.5;;;;;;;;;;;;;
2020/12/12 01:26:41;;;;;;;2.6;1.3;;;;;;;;;;;;;
2020/12/12 01:29:07;;;;;;;3.2;1.4;;;;;;;;;;;;;
2020/12/12 01:31:32;;;;;;;4.2;1.6;;;;;;;;;;;;;
2020/12/12 01:33:59;;;;;;;1.7;1.3;;;;;;;;;;;;;
2020/12/12 01:36:24;;;;;;;3.6;1.7;;;;;;;;;;;;;
2020/12/12 01:38:50;;;;;;;1.5;1.3;;;;;;;;;;;;;
2020/12/12 01:41:15;;;;;;;2.8;1.2;;;;;;;;;;;;;
2020/12/12 01:43:40;;;;;;;5;1.5;;;;;;;;;;;;;
2020/12/12 01:46:06;;;;;;;1.9;1.3;;;;;;;;;;;;;
2020/12/12 01:48:32;;;;;;;1.6;1.3;;;;;;;;;;;;;
2020/12/12 01:50:58;;;;;;;6.2;3;;;;;;;;;;;;;
2020/12/12 01:53:26;;;;;;;4.4;2;;;;;;;;;;;;;
2020/12/12 01:55:49;;;;;;;3.4;1.4;;;;;;;;;;;;;
2020/12/12 01:58:15;;;;;;;1;0.7;;;;;;;;;;;;;
2020/12/12 02:00:40;;;;;;;1.2;1.1;;;;;;;;;;;;;
2020/12/12 02:03:05;;;;;;;1.3;0.7;;;;;;;;;;;;;
2020/12/12 02:05:40;;;;;;;1.2;1;;;;;;;;;;;;;
2020/12/12 02:07:56;;;;;;;2.2;0.7;;;;;;;;;;;;;
2020/12/12 02:10:21;;;;;;;2.3;0.8;;;;;;;;;;;;;
2020/12/12 02:12:46;;;;;;;0.6;0.6;;;;;;;;;;;;;
2020/12/12 02:15:11;;;;;;;1;0.9;;;;;;;;;;;;;
2020/12/12 02:17:37;;;;;;;0.5;0.5;;;;;;;;;;;;;
2020/12/12 02:20:02;;;;;;;1;0.8;;;;;;;;;;;;;
2020/12/12 02:22:28;;;;;;;0.7;0.6;;;;;;;;;;;;;
2020/12/12 02:24:53;;;;;;;3;0.9;;;;;;;;;;;;;
2020/12/12 02:27:21;;;;;;;0.9;0.5;;;;;;;;;;;;;
2020/12/12 02:29:48;;;;;;;0.8;0.8;;;;;;;;;;;;;
2020/12/12 02:32:11;;;;;;;1.6;0.9;;;;;;;;;;;;;
2020/12/12 02:34:37;;;;;;;0.7;0.7;;;;;;;;;;;;;
2020/12/12 02:37:03;;;;;;;0.5;0.5;;;;;;;;;;;;;
2020/12/12 02:39:29;;;;;;;0.7;0.5;;;;;;;;;;;;;
2020/12/12 02:41:55;;;;;;;0.7;0.7;;;;;;;;;;;;;
2020/12/12 02:44:20;;;;;;;0.7;0.6;;;;;;;;;;;;;
2020/12/12 02:46:45;;;;;;;0.6;0.6;;;;;;;;;;;;;
2020/12/12 02:49:10;;;;;;;0.9;0.8;;;;;;;;;;;;;
2020/12/12 02:51:35;;;;;;;0.6;0.6;;;;;;;;;;;;;
2020/12/12 02:54:00;;;;;;;0.5;0.5;;;;;;;;;;;;;
2020/12/12 02:56:25;;;;;;;0.7;0.7;;;;;;;;;;;;;
2020/12/12 02:58:51;;;;;;;0.6;0.6;;;;;;;;;;;;;
2020/12/12 03:01:16;;;;;;;1.3;0.8;;;;;;;;;;;;;
2020/12/12 03:03:42;;;;;;;11.2;0.7;;;;;;;;;;;;;
2020/12/12 03:06:07;;;;;;;0.6;0.6;;;;;;;;;;;;;
2020/12/12 03:08:33;;;;;;;0.3;0.3;;;;;;;;;;;;;
2020/12/12 03:10:58;;;;;;;0.6;0.6;;;;;;;;;;;;;
2020/12/12 03:13:24;;;;;;;0.4;0.4;;;;;;;;;;;;;
2020/12/12 03:15:50;;;;;;;0.5;0.5;;;;;;;;;;;;;
2020/12/12 03:18:16;;;;;;;0.7;0.5;;;;;;;;;;;;;
2020/12/12 03:20:42;;;;;;;2.5;1;;;;;;;;;;;;;
2020/12/12 03:23:07;;;;;;;0.4;0.4;;;;;;;;;;;;;
2020/12/12 03:25:32;;;;;;;2.3;0.6;;;;;;;;;;;;;
2020/12/12 03:27:59;;;;;;;0.8;0.6;;;;;;;;;;;;;
2020/12/12 03:30:24;;;;;;;1.1;0.6;;;;;;;;;;;;;
2020/12/12 03:32:51;;;;;;;0.6;0.5;;;;;;;;;;;;;
2020/12/12 03:35:16;;;;;;;1;0.6;;;;;;;;;;;;;
2020/12/12 03:37:41;;;;;;;0.8;0.4;;;;;;;;;;;;;
2020/12/12 03:40:07;;;;;;;0.3;0.3;;;;;;;;;;;;;
2020/12/12 03:42:32;;;;;;;2.4;0.8;;;;;;;;;;;;;
2020/12/12 03:44:57;;;;;;;0.6;0.6;;;;;;;;;;;;;
2020/12/12 03:47:23;;;;;;;0.6;0.6;;;;;;;;;;;;;
2020/12/12 03:49:48;;;;;;;0.4;0.4;;;;;;;;;;;;;
2020/12/12 03:52:15;;;;;;;0.4;0.4;;;;;;;;;;;;;
2020/12/12 03:54:40;;;;;;;1;0.7;;;;;;;;;;;;;
2020/12/12 03:57:07;;;;;;;0.7;0.5;;;;;;;;;;;;;
2020/12/12 03:59:31;;;;;;;1;0.4;;;;;;;;;;;;;
2020/12/12 04:02:30;;;;;;;0.6;0.6;;;;;;;2.18;84.73926;918.2626;;;;
2020/12/12 04:04:56;;;;;;;0.6;0.6;;;;;;;2.13;84.85352;918.3236;;;;
2020/12/12 04:07:21;;;;;;;0.7;0.7;;;;;;;2.11;84.71387;918.2316;;;;
2020/12/12 04:09:49;;;;;;;0.6;0.6;;;;;;;2.14;84.24902;918.3205;;;;
2020/12/12 04:12:14;;;;;;;0.7;0.6;;;;;;;2.09;84.40723;918.3812;;;;
2020/12/12 04:14:42;;;;;;;1;0.9;;;;;;;2.12;84.23535;918.3769;;;;
2020/12/12 04:17:07;;;;;;;0.5;0.4;;;;;;;2.18;83.76465;918.2941;;;;
2020/12/12 04:19:35;;;;;;;0.3;0.3;;;;;;;2.18;83.35059;918.2447;;;;
2020/12/12 04:22:00;;;;;;;8.3;0.4;;;;;;;2.17;83.22559;918.2321;;;;
2020/12/12 04:24:26;;;;;;;0.8;0.6;;;;;;;2.12;83.49707;918.2575;;;;
2020/12/12 04:26:51;;;;;;;0.5;0.5;;;;;;;;;;;;;
2020/12/12 04:29:17;;;;;;;0.3;0.3;;;;;;;;;;;;;
2020/12/12 04:31:42;;;;;;;0.9;0.7;;;;;;;;;;;;;
2020/12/12 04:34:08;;;;;;;0.3;0.3;;;;;;;;;;;;;
2020/12/12 04:36:33;;;;;;;0.3;0.3;;;;;;;;;;;;;
2020/12/12 04:38:59;;;;;;;0.2;0.2;;;;;;;;;;;;;
2020/12/12 04:41:24;;;;;;;0.5;0.5;;;;;;;;;;;;;
2020/12/12 04:43:50;;;;;;;0.5;0.5;;;;;;;;;;;;;
2020/12/12 04:46:15;;;;;;;0.4;0.4;;;;;;;;;;;;;
2020/12/12 04:48:40;;;;;;;0.3;0.3;;;;;;;;;;;;;
2020/12/12 04:51:06;;;;;;;0.3;0.3;;;;;;;;;;;;;
2020/12/12 04:53:31;;;;;;;0.2;0.2;;;;;;;;;;;;;
2020/12/12 04:55:56;;;;;;;0.6;0.3;;;;;;;;;;;;;
2020/12/12 04:58:21;;;;;;;0.2;0.2;;;;;;;;;;;;;
2020/12/12 05:00:48;;;;;;;0.3;0.3;;;;;;;;;;;;;
2020/12/12 05:03:13;;;;;;;0.5;0.5;;;;;;;;;;;;;
2020/12/12 05:05:38;;;;;;;0.3;0.3;;;;;;;;;;;;;
2020/12/12 05:08:03;;;;;;;1.2;1;;;;;;;;;;;;;
2020/12/12 05:10:29;;;;;;;1.3;1.1;;;;;;;;;;;;;
2020/12/12 05:12:55;;;;;;;0.6;0.6;;;;;;;;;;;;;
2020/12/12 05:15:21;;;;;;;1.4;1.1;;;;;;;;;;;;;
2020/12/12 05:17:46;;;;;;;1.1;0.7;;;;;;;;;;;;;
2020/12/12 05:20:11;;;;;;;1.2;1.1;;;;;;;;;;;;;
2020/12/12 05:22:37;;;;;;;3;1.3;;;;;;;;;;;;;
2020/12/12 05:25:03;;;;;;;1.4;1.2;;;;;;;;;;;;;
2020/12/12 05:27:28;;;;;;;4;1.1;;;;;;;;;;;;;
2020/12/12 05:29:53;;;;;;;1.6;1.4;;;;;;;;;;;;;
2020/12/12 05:32:19;;;;;;;3.4;1;;;;;;;;;;;;;
2020/12/12 05:34:45;;;;;;;2.6;1.4;;;;;;;;;;;;;
2020/12/12 05:37:10;;;;;;;1.7;1.2;;;;;;;;;;;;;
2020/12/12 05:39:36;;;;;;;0.7;0.7;;;;;;;;;;;;;
2020/12/12 05:42:01;;;;;;;2.6;0.7;;;;;;;;;;;;;
2020/12/12 05:44:26;;;;;;;0.7;0.7;;;;;;;;;;;;;
2020/12/12 05:46:51;;;;;;;0.7;0.6;;;;;;;;;;;;;
2020/12/12 05:49:16;;;;;;;2.1;1.1;;;;;;;;;;;;;
2020/12/12 05:51:42;;;;;;;1.5;0.9;;;;;;;;;;;;;
2020/12/12 05:54:07;;;;;;;1.2;0.8;;;;;;;;;;;;;
2020/12/12 05:56:32;;;;;;;3.1;1.2;;;;;;;;;;;;;
2020/12/12 05:58:57;;;;;;;1.2;1;;;;;;;;;;;;;
2020/12/12 06:01:22;;;;;;;1.3;1.2;;;;;;;;;;;;;
2020/12/12 06:03:47;;;;;;;1;0.9;;;;;;;;;;;;;
2020/12/12 06:06:12;;;;;;;0.5;0.5;;;;;;;;;;;;;
2020/12/12 06:08:38;;;;;;;0.8;0.7;;;;;;;;;;;;;
2020/12/12 06:11:04;;;;;;;2.8;1.4;;;;;;;;;;;;;
2020/12/12 06:13:29;;;;;;;1.5;1.1;;;;;;;;;;;;;
2020/12/12 06:15:54;;;;;;;2.3;1.1;;;;;;;;;;;;;
2020/12/12 06:18:19;;;;;;;5.5;1.2;;;;;;;;;;;;;
2020/12/12 06:20:46;;;;;;;2.5;1.1;;;;;;;;;;;;;
2020/12/12 06:23:11;;;;;;;1.3;0.7;;;;;;;;;;;;;
2020/12/12 06:25:36;;;;;;;2.3;1.1;;;;;;;;;;;;;
2020/12/12 06:28:01;;;;;;;0.8;0.8;;;;;;;;;;;;;
2020/12/12 06:30:26;;;;;;;0.8;0.7;;;;;;;;;;;;;
2020/12/12 06:32:51;;;;;;;0.8;0.7;;;;;;;;;;;;;
2020/12/12 06:35:16;;;;;;;0.8;0.4;;;;;;;;;;;;;
2020/12/12 06:37:42;;;;;;;0.5;0.5;;;;;;;;;;;;;
2020/12/12 06:40:07;;;;;;;1.2;0.6;;;;;;;;;;;;;
2020/12/12 06:42:32;;;;;;;1.2;0.8;;;;;;;;;;;;;
2020/12/12 06:44:57;;;;;;;0.4;0.3;;;;;;;;;;;;;
2020/12/12 06:47:22;;;;;;;1.6;0.8;;;;;;;;;;;;;
2020/12/12 06:49:47;;;;;;;1.2;0.9;;;;;;;;;;;;;
2020/12/12 06:52:12;;;;;;;1.6;1;;;;;;;;;;;;;
2020/12/12 06:54:37;;;;;;;1.4;0.9;;;;;;;;;;;;;
2020/12/12 06:57:03;;;;;;;1.9;1;;;;;;;;;;;;;
2020/12/12 06:59:28;;;;;;;0.7;0.7;;;;;;;;;;;;;
2020/12/12 07:01:53;;;;;;;2;1;;;;;;;;;;;;;
2020/12/12 07:04:18;;;;;;;4.6;2.8;;;;;;;;;;;;;
2020/12/12 07:06:43;;;;;;;4.8;2.9;;;;;;;;;;;;;
2020/12/12 07:09:09;;;;;;;3.1;2.5;;;;;;;;;;;;;
2020/12/12 07:11:34;;;;;;;1.7;1.4;;;;;;;;;;;;;
2020/12/12 07:13:59;;;;;;;1.9;1.6;;;;;;;;;;;;;
2020/12/12 07:16:24;;;;;;;1.4;1.2;;;;;;;;;;;;;
2020/12/12 07:18:50;;;;;;;2;1.6;;;;;;;;;;;;;
2020/12/12 07:21:15;;;;;;;1.2;1;;;;;;;;;;;;;
2020/12/12 07:23:40;;;;;;;2.8;1.5;;;;;;;;;;;;;
2020/12/12 07:26:05;;;;;;;2;1;;;;;;;;;;;;;
2020/12/12 07:28:31;;;;;;;0.8;0.8;;;;;;;;;;;;;
2020/12/12 07:30:56;;;;;;;2.1;1.2;;;;;;;;;;;;;
2020/12/12 07:33:21;;;;;;;1.8;1.4;;;;;;;;;;;;;
2020/12/12 07:35:47;;;;;;;2.7;1.6;;;;;;;;;;;;;
2020/12/12 07:38:12;;;;;;;3.3;1.7;;;;;;;;;;;;;
2020/12/12 07:40:37;;;;;;;1.9;1;;;;;;;;;;;;;
2020/12/12 07:43:03;;;;;;;1.9;1.4;;;;;;;;;;;;;
2020/12/12 07:45:41;;;;;;;2.4;1.4;;;;;;;;;;;;;
2020/12/12 07:47:53;;;;;;;3.8;1.8;;;;;;;;;;;;;
2020/12/12 07:50:18;;;;;;;2.5;1.5;;;;;;;;;;;;;
2020/12/12 07:52:43;;;;;;;2.5;1.7;;;;;;;;;;;;;
2020/12/12 07:55:10;;;;;;;2.5;1.7;;;;;;;;;;;;;
2020/12/12 07:57:37;;;;;;;5.3;2.6;;;;;;;;;;;;;
2020/12/12 08:00:00;;;;;;;4.4;2.8;;;;;;;;;;;;;
2020/12/12 08:02:27;;;;;;;8.8;2.6;;;;;;;;;;;;;
2020/12/12 08:04:52;;;;;;;3.7;2.5;;;;;;;;;;;;;
2020/12/12 08:07:19;;;;;;;7.2;3.1;;;;;;;;;;;;;
2020/12/12 08:09:42;;;;;;;7.5;3.3;;;;;;;;;;;;;
2020/12/12 08:12:08;;;;;;;5;3;;;;;;;;;;;;;
2020/12/12 08:14:35;;;;;;;7.4;3.6;;;;;;;;;;;;;
2020/12/12 08:17:00;;;;;;;7.1;3.9;;;;;;;;;;;;;
2020/12/12 08:19:27;;;;;;;5.5;3.3;;;;;;;;;;;;;
2020/12/12 08:21:51;;;;;;;6.7;3.1;;;;;;;;;;;;;
2020/12/12 08:24:16;;;;;;;6.4;3.6;;;;;;;;;;;;;
2020/12/12 08:26:41;;;;;;;7.3;2.9;;;;;;;;;;;;;
2020/12/12 08:29:07;;;;;;;7.9;3.5;;;;;;;;;;;;;
2020/12/12 08:31:32;;;;;;;8.7;3.5;;;;;;;;;;;;;
2020/12/12 08:33:57;;;;;;;4.9;2.6;;;;;;;;;;;;;
2020/12/12 08:36:24;;;;;;;8.9;4.4;;;;;;;;;;;;;
2020/12/12 08:38:49;;;;;;;4;2.6;;;;;;;;;;;;;
2020/12/12 08:41:15;;;;;;;9;4.7;;;;;;;;;;;;;
2020/12/12 08:43:43;;;;;;;14.6;6.9;;;;;;;;;;;;;
2020/12/12 08:46:07;;;;;;;14;5.5;;;;;;;;;;;;;
2020/12/12 08:48:33;;;;;;;8.1;4.4;;;;;;;;;;;;;
2020/12/12 08:50:57;;;;;;;11.4;6;;;;;;;;;;;;;
2020/12/12 08:53:23;;;;;;;10.3;4.9;;;;;;;;;;;;;
2020/12/12 08:55:48;;;;;;;10;4.8;;;;;;;;;;;;;
2020/12/12 08:58:13;;;;;;;14.5;6.2;;;;;;;;;;;;;
2020/12/12 09:00:38;;;;;;;11.3;5.4;;;;;;;;;;;;;
2020/12/12 09:03:03;;;;;;;8.1;4.6;;;;;;;;;;;;;
2020/12/12 09:05:28;;;;;;;11.4;4.8;;;;;;;;;;;;;
2020/12/12 09:07:54;;;;;;;2.9;2.5;;;;;;;;;;;;;
2020/12/12 09:10:19;;;;;;;4.5;2.8;;;;;;;;;;;;;
2020/12/12 09:12:44;;;;;;;5.3;3.2;;;;;;;;;;;;;
2020/12/12 09:15:10;;;;;;;7.1;3.7;;;;;;;;;;;;;
2020/12/12 09:17:35;;;;;;;9.9;4.4;;;;;;;;;;;;;
2020/12/12 09:20:01;;;;;;;13.9;6.2;;;;;;;;;;;;;
2020/12/12 09:22:26;;;;;;;20.5;8.3;;;;;;;;;;;;;
2020/12/12 09:24:52;;;;;;;10.3;4.4;;;;;;;;;;;;;
2020/12/12 09:27:17;;;;;;;10.1;5.3;;;;;;;;;;;;;
2020/12/12 09:29:43;;;;;;;45.5;19.3;;;;;;;;;;;;;
2020/12/12 09:32:08;;;;;;;18.6;8.7;;;;;;;;;;;;;
2020/12/12 09:34:37;;;;;;;47.3;17.7;;;;;;;;;;;;;
2020/12/12 09:36:59;;;;;;;35.7;15.7;;;;;;;;;;;;;
2020/12/12 09:39:25;;;;;;;9.1;4.8;;;;;;;;;;;;;
2020/12/12 09:41:51;;;;;;;17.8;6.5;;;;;;;;;;;;;
2020/12/12 09:44:17;;;;;;;11.5;6.1;;;;;;;;;;;;;
2020/12/12 09:46:42;;;;;;;30.1;12.8;;;;;;;;;;;;;
2020/12/12 09:49:09;;;;;;;4.8;3.3;;;;;;;;;;;;;
2020/12/12 09:51:34;;;;;;;3.9;2.4;;;;;;;;;;;;;
2020/12/12 09:54:00;;;;;;;7.5;3.1;;;;;;;;;;;;;
2020/12/12 09:56:25;;;;;;;11.4;6.8;;;;;;;;;;;;;
2020/12/12 09:58:51;;;;;;;18.6;9.9;;;;;;;;;;;;;
2020/12/12 10:01:16;;;;;;;10.3;5.7;;;;;;;;;;;;;
2020/12/12 10:03:42;;;;;;;9.5;4.6;;;;;;;;;;;;;
2020/12/12 10:06:07;;;;;;;10.6;3.8;;;;;;;;;;;;;
2020/12/12 10:08:33;;;;;;;27.1;12.2;;;;;;;;;;;;;
2020/12/12 10:10:59;;;;;;;8.6;4.7;;;;;;;;;;;;;
2020/12/12 10:13:25;;;;;;;3.4;2.1;;;;;;;;;;;;;
2020/12/12 10:15:50;;;;;;;2.7;1.7;;;;;;;;;;;;;
2020/12/12 10:18:17;;;;;;;3.2;1.7;;;;;;;;;;;;;
2020/12/12 10:20:42;;;;;;;5.3;1.5;;;;;;;;;;;;;
2020/12/12 10:23:08;;;;;;;4.5;1.5;;;;;;;;;;;;;
2020/12/12 10:25:33;;;;;;;4;1.5;;;;;;;;;;;;;
2020/12/12 10:27:58;;;;;;;5.6;4;;;;;;;;;;;;;
2020/12/12 10:30:23;;;;;;;4.6;1.5;;;;;;;;;;;;;
2020/12/12 10:32:48;;;;;;;3;1.7;;;;;;;;;;;;;
2020/12/12 10:35:14;;;;;;;11;5.3;;;;;;;;;;;;;
2020/12/12 10:37:39;;;;;;;0.4;0.4;;;;;;;;;;;;;
2020/12/12 10:40:15;;;;;;;5;1.4;;;;;;;;;;;;;
2020/12/12 10:42:36;;;;;;;1.2;0.7;;;;;;;;;;;;;
2020/12/12 10:45:01;;;;;;;2.6;1;;;;;;;;;;;;;
2020/12/12 10:47:26;;;;;;;8.5;2;;;;;;;;;;;;;
2020/12/12 10:49:51;;;;;;;5.3;0.8;;;;;;;;;;;;;
2020/12/12 10:52:16;;;;;;;2.2;1.4;;;;;;;;;;;;;
2020/12/12 10:54:46;;;;;;;15.9;6.8;;;;;;;;;;;;;
2020/12/12 10:57:08;;;;;;;12;3.1;;;;;;;;;;;;;
2020/12/12 10:59:33;;;;;;;8.8;2.4;;;;;;;;;;;;;
2020/12/12 11:01:58;;;;;;;14.8;8.6;;;;;;;;;;;;;
2020/12/12 11:04:25;;;;;;;2;1.4;;;;;;;;;;;;;
2020/12/12 11:06:50;;;;;;;1.8;1.1;;;;;;;;;;;;;
2020/12/12 11:09:16;;;;;;;4.6;2.6;;;;;;;;;;;;;
2020/12/12 11:11:41;;;;;;;0.5;0.5;;;;;;;;;;;;;
2020/12/12 11:14:07;;;;;;;2.1;0.7;;;;;;;;;;;;;
2020/12/12 11:16:32;;;;;;;3.3;0.7;;;;;;;;;;;;;
2020/12/12 11:18:58;;;;;;;1.4;0.7;;;;;;;;;;;;;
2020/12/12 11:21:23;;;;;;;0.8;0.7;;;;;;;;;;;;;
2020/12/12 11:23:49;;;;;;;1.3;0.9;;;;;;;;;;;;;
2020/12/12 11:26:14;;;;;;;4;0.9;;;;;;;;;;;;;
2020/12/12 11:28:40;;;;;;;1.3;0.9;;;;;;;;;;;;;
2020/12/12 11:31:05;;;;;;;2.5;1.1;;;;;;;;;;;;;
2020/12/12 11:33:30;;;;;;;4;1.1;;;;;;;;;;;;;
2020/12/12 11:36:06;;;;;;;1.4;0.5;;;;;;;;;;;;;
2020/12/12 11:38:26;;;;;;;1.5;0.7;;;;;;;;;;;;;
2020/12/12 11:40:54;;;;;;;1.3;0.7;;;;;;;;;;;;;
2020/12/12 11:43:47;;;;;;;4.5;1.2;;;;;;;;;;;;;
2020/12/12 11:45:55;;;;;;;1.8;1.2;;;;;;;;;;;;;
2020/12/12 11:48:01;;;;;;;1.6;1;;;;;;;;;;;;;
2020/12/12 11:50:29;;;;;;;1.3;0.9;;;;;;;;;;;;;
2020/12/12 11:52:54;;;;;;;0.8;0.6;;;;;;;;;;;;;
2020/12/12 11:55:18;;;;;;;9.5;5.5;;;;;;;;;;;;;
2020/12/12 11:57:43;;;;;;;3.2;1.6;;;;;;;;;;;;;
2020/12/12 12:00:15;;;;;;;2.6;1.5;;;;;;;;;;;;;
2020/12/12 12:02:41;;;;;;;1.8;1.3;;;;;;;;;;;;;
2020/12/12 12:05:06;;;;;;;8.4;4;;;;;;;;;;;;;
2020/12/12 12:07:31;;;;;;;12.1;4.8;;;;;;;;;;;;;
2020/12/12 12:10:07;;;;;;;13.2;3.9;;;;;;;;;;;;;
2020/12/12 12:12:21;;;;;;;4;2.4;;;;;;;;;;;;;
2020/12/12 12:14:46;;;;;;;4.1;2.1;;;;;;;;;;;;;
2020/12/12 12:17:12;;;;;;;5.2;2.3;;;;;;;;;;;;;
2020/12/12 12:19:37;;;;;;;6.4;3.6;;;;;;;;;;;;;
2020/12/12 12:22:04;;;;;;;22.6;11.7;;;;;;;;;;;;;
2020/12/12 12:24:28;;;;;;;4.8;2.8;;;;;;;;;;;;;
2020/12/12 12:26:54;;;;;;;17.8;9.7;;;;;;;;;;;;;
2020/12/12 12:29:20;;;;;;;21.3;9.6;;;;;;;;;;;;;
2020/12/12 12:31:46;;;;;;;3.2;1.4;;;;;;;;;;;;;
2020/12/12 12:34:11;;;;;;;7;2.1;;;;;;;;;;;;;
2020/12/12 12:36:38;;;;;;;2.1;1.4;;;;;;;;;;;;;
2020/12/12 12:39:02;;;;;;;2.7;1.3;;;;;;;;;;;;;
2020/12/12 12:41:29;;;;;;;6.6;4.1;;;;;;;;;;;;;
2020/12/12 12:44:00;;;;;;;4.5;2.3;;;;;;;;;;;;;
2020/12/12 12:46:19;;;;;;;3;1.4;;;;;;;;;;;;;
2020/12/12 12:48:45;;;;;;;4.6;1.9;;;;;;;;;;;;;
2020/12/12 12:51:10;;;;;;;2.5;1.2;;;;;;;;;;;;;
2020/12/12 12:53:35;;;;;;;2;1.3;;;;;;;;;;;;;
2020/12/12 12:56:00;;;;;;;2.8;2.1;;;;;;;;;;;;;
2020/12/12 12:58:26;;;;;;;3.4;1.3;;;;;;;;;;;;;
2020/12/12 13:00:51;;;;;;;2.3;1.3;;;;;;;;;;;;;
2020/12/12 13:03:17;;;;;;;3.2;1.1;;;;;;;;;;;;;
2020/12/12 13:05:42;;;;;;;1.4;0.7;;;;;;;;;;;;;
2020/12/12 13:08:08;;;;;;;2.8;1.4;;;;;;;;;;;;;
2020/12/12 13:10:33;;;;;;;6.8;3.4;;;;;;;;;;;;;
2020/12/12 13:12:59;;;;;;;1.9;1.4;;;;;;;;;;;;;
2020/12/12 13:15:24;;;;;;;3.9;1.9;;;;;;;;;;;;;
2020/12/12 13:17:51;;;;;;;1.7;1.1;;;;;;;;;;;;;
2020/12/12 13:20:22;;;;;;;3;1.9;;;;;;;;;;;;;
2020/12/12 13:22:40;;;;;;;8.5;3;;;;;;;;;;;;;
2020/12/12 13:25:10;;;;;;;4.8;2.9;;;;;;;;;;;;;
2020/12/12 13:27:36;;;;;;;11.8;3.2;;;;;;;;;;;;;
2020/12/12 13:30:19;;;;;;;7.3;2.9;;;;;;;;;;;;;
2020/12/12 13:32:25;;;;;;;6.7;2.6;;;;;;;;;;;;;
2020/12/12 13:34:50;;;;;;;4.3;2.5;;;;;;;;;;;;;
2020/12/12 13:37:16;;;;;;;4;2.6;;;;;;;;;;;;;
2020/12/12 13:39:43;;;;;;;5.7;2.5;;;;;;;;;;;;;
2020/12/12 13:42:06;;;;;;;9.9;3.1;;;;;;;;;;;;;
2020/12/12 13:44:31;;;;;;;6.3;2.8;;;;;;;;;;;;;
2020/12/12 13:46:56;;;;;;;5.9;3.1;;;;;;;;;;;;;
2020/12/12 13:49:21;;;;;;;6.5;1.7;;;;;;;;;;;;;
2020/12/12 13:51:46;;;;;;;4.9;2.1;;;;;;;;;;;;;
2020/12/12 13:54:12;;;;;;;2.8;2;;;;;;;;;;;;;
2020/12/12 13:56:37;;;;;;;2;1.6;;;;;;;;;;;;;
2020/12/12 13:59:06;;;;;;;3.1;1.3;;;;;;;;;;;;;
2020/12/12 14:01:28;;;;;;;6;2.8;;;;;;;;;;;;;
2020/12/12 14:03:54;;;;;;;3.2;1.8;;;;;;;;;;;;;
2020/12/12 14:06:20;;;;;;;4.8;1.9;;;;;;;;;;;;;
2020/12/12 14:09:03;;;;;;;4.8;2.6;;;;;;;;;;;;;
2020/12/12 14:11:37;;;;;;;2.5;1.4;;;;;;;;;;;;;
2020/12/12 14:21:24;;;;;;;4.4;1.8;;;;;;;;;;;;;
2020/12/12 14:23:21;;;;;;;3;1.8;;;;;;;;;;;;;
2020/12/12 14:26:02;;;;;;;3;2;;;;;;;;;;;;;
2020/12/12 14:28:24;;;;;;;5.3;2.6;;;;;;;;;;;;;
2020/12/12 14:30:42;;;;;;;5;2.5;;;;;;;;;;;;;
2020/12/12 14:33:09;;;;;;;6.8;2.7;;;;;;;;;;;;;
2020/12/12 14:35:34;;;;;;;7.9;4;;;;;;;;;;;;;
2020/12/12 14:37:59;;;;;;;4.1;2.5;;;;;;;;;;;;;
2020/12/12 14:40:25;;;;;;;8.1;3.8;;;;;;;;;;;;;
2020/12/12 14:42:51;;;;;;;19.2;9.4;;;;;;;;;;;;;
2020/12/12 14:45:16;;;;;;;13.4;5.4;;;;;;;;;;;;;
2020/12/12 14:47:41;;;;;;;9;4.2;;;;;;;;;;;;;
2020/12/12 14:50:07;;;;;;;22.4;10.7;;;;;;;;;;;;;
2020/12/12 14:52:32;;;;;;;9.5;4.8;;;;;;;;;;;;;
2020/12/12 14:54:58;;;;;;;6.1;3.4;;;;;;;;;;;;;
2020/12/12 14:57:24;;;;;;;7.4;4.4;;;;;;;;;;;;;
2020/12/12 14:59:49;;;;;;;8.6;4.1;;;;;;;;;;;;;
2020/12/12 15:02:15;;;;;;;9.1;5.6;;;;;;;;;;;;;
2020/12/12 15:04:41;;;;;;;14.1;5.8;;;;;;;;;;;;;
2020/12/12 15:07:06;;;;;;;8.4;4.6;;;;;;;;;;;;;
2020/12/12 15:09:31;;;;;;;7.1;3;;;;;;;;;;;;;
2020/12/12 15:11:58;;;;;;;8;3.5;;;;;;;;;;;;;
2020/12/12 15:14:23;;;;;;;8.2;3.8;;;;;;;;;;;;;
2020/12/12 15:16:49;;;;;;;7.7;4.2;;;;;;;;;;;;;
2020/12/12 15:19:15;;;;;;;8.8;4.6;;;;;;;;;;;;;
2020/12/12 15:21:40;;;;;;;8.6;4.7;;;;;;;;;;;;;
2020/12/12 15:24:05;;;;;;;10.5;4.9;;;;;;;;;;;;;
2020/12/12 15:26:33;;;;;;;12.5;5.9;;;;;;;;;;;;;
2020/12/12 15:28:56;;;;;;;11.1;6;;;;;;;;;;;;;
2020/12/12 15:31:22;;;;;;;10.7;6.2;;;;;;;;;;;;;
2020/12/12 15:33:48;;;;;;;10.5;5.2;;;;;;;;;;;;;
2020/12/12 15:36:14;;;;;;;6.1;4.3;;;;;;;;;;;;;
2020/12/12 15:38:39;;;;;;;4.9;3.1;;;;;;;;;;;;;
2020/12/12 15:41:05;;;;;;;6.4;3.8;;;;;;;;;;;;;
2020/12/12 15:43:30;;;;;;;7.8;3.5;;;;;;;;;;;;;
2020/12/12 15:45:56;;;;;;;8.7;3.8;;;;;;;;;;;;;
2020/12/12 15:48:21;;;;;;;5.5;3.4;;;;;;;;;;;;;
2020/12/12 15:50:47;;;;;;;8;4.1;;;;;;;;;;;;;
2020/12/12 15:53:12;;;;;;;8.3;4.2;;;;;;;;;;;;;
2020/12/12 15:55:39;;;;;;;6.5;4.5;;;;;;;;;;;;;
2020/12/12 15:58:04;;;;;;;9.5;5.7;;;;;;;;;;;;;
2020/12/12 16:00:31;;;;;;;9;4.9;;;;;;;;;;;;;
2020/12/12 16:02:56;;;;;;;14.5;5.6;;;;;;;;;;;;;
2020/12/12 16:05:22;;;;;;;17.4;8.1;;;;;;;;;;;;;
2020/12/12 16:07:47;;;;;;;11.8;6.2;;;;;;;;;;;;;
2020/12/12 16:10:13;;;;;;;15.5;7.6;;;;;;;;;;;;;
2020/12/12 16:12:38;;;;;;;16;7.2;;;;;;;;;;;;;
2020/12/12 16:15:04;;;;;;;13.7;7.5;;;;;;;;;;;;;
2020/12/12 16:17:29;;;;;;;11.7;7;;;;;;;;;;;;;
2020/12/12 16:19:57;;;;;;;17.1;7.3;;;;;;;;;;;;;
2020/12/12 16:22:22;;;;;;;9.9;5.1;;;;;;;;;;;;;
2020/12/12 16:24:49;;;;;;;11.6;6.9;;;;;;;;;;;;;
2020/12/12 16:27:14;;;;;;;25.4;11.6;;;;;;;;;;;;;
2020/12/12 16:29:41;;;;;;;7.3;4.2;;;;;;;;;;;;;
2020/12/12 16:32:06;;;;;;;7.4;3.4;;;;;;;;;;;;;
2020/12/12 16:34:32;;;;;;;4.2;2.6;;;;;;;;;;;;;
2020/12/12 16:36:57;;;;;;;9.5;4.4;;;;;;;;;;;;;
2020/12/12 16:39:23;;;;;;;7.1;4.6;;;;;;;;;;;;;
2020/12/12 16:41:48;;;;;;;6.8;3.8;;;;;;;;;;;;;
2020/12/12 16:44:13;;;;;;;7.6;4.1;;;;;;;;;;;;;
2020/12/12 16:46:39;;;;;;;8.5;4.1;;;;;;;;;;;;;
2020/12/12 16:49:04;;;;;;;6.7;3.7;;;;;;;;;;;;;
2020/12/12 16:51:29;;;;;;;8.4;4.2;;;;;;;;;;;;;
2020/12/12 16:53:54;;;;;;;4.3;2.7;;;;;;;;;;;;;
2020/12/12 16:56:19;;;;;;;6.2;3.7;;;;;;;;;;;;;
2020/12/12 16:58:44;;;;;;;16.9;6.1;;;;;;;;;;;;;
2020/12/12 17:01:10;;;;;;;7.9;3.9;;;;;;;;;;;;;
2020/12/12 17:03:35;;;;;;;5.7;2.7;;;;;;;;;;;;;
2020/12/12 17:06:01;;;;;;;3.8;1.9;;;;;;;;;;;;;
2020/12/12 17:08:26;;;;;;;3.6;1.9;;;;;;;;;;;;;
2020/12/12 17:10:53;;;;;;;2.9;1.9;;;;;;;;;;;;;
2020/12/12 17:13:18;;;;;;;2.4;2;;;;;;;;;;;;;
2020/12/12 17:15:46;;;;;;;2.3;2;;;;;;;;;;;;;
2020/12/12 17:18:11;;;;;;;4.5;2.8;;;;;;;;;;;;;
2020/12/12 17:20:36;;;;;;;3.2;1.8;;;;;;;;;;;;;
2020/12/12 17:23:01;;;;;;;6;3;;;;;;;;;;;;;
2020/12/12 17:25:27;;;;;;;4.7;2.9;;;;;;;;;;;;;
2020/12/12 17:27:52;;;;;;;7.1;3.3;;;;;;;;;;;;;
2020/12/12 17:30:17;;;;;;;5.7;3.4;;;;;;;;;;;;;
2020/12/12 17:32:46;;;;;;;6.2;3.2;;;;;;;;;;;;;
2020/12/12 17:35:08;;;;;;;2.8;2.1;;;;;;;;;;;;;
2020/12/12 17:37:33;;;;;;;6.2;3.1;;;;;;;;;;;;;
2020/12/12 17:39:58;;;;;;;8.1;4.2;;;;;;;;;;;;;
2020/12/12 17:42:24;;;;;;;6;3.7;;;;;;;;;;;;;
2020/12/12 17:44:49;;;;;;;5.7;3.8;;;;;;;;;;;;;
2020/12/12 17:47:16;;;;;;;10.5;4.4;;;;;;;;;;;;;
2020/12/12 17:49:41;;;;;;;11.6;6;;;;;;;;;;;;;
2020/12/12 17:52:07;;;;;;;12.2;6.7;;;;;;;;;;;;;
2020/12/12 17:54:32;;;;;;;11.5;6.1;;;;;;;;;;;;;
2020/12/12 17:56:58;;;;;;;10.8;6.2;;;;;;;;;;;;;
2020/12/12 17:59:23;;;;;;;13.6;6.3;;;;;;;;;;;;;
2020/12/12 18:01:50;;;;;;;9.8;6;;;;;;;;;;;;;
2020/12/12 18:04:15;;;;;;;12.5;6.1;;;;;;;;;;;;;
2020/12/12 18:06:41;;;;;;;14;5.7;;;;;;;;;;;;;
2020/12/12 18:09:06;;;;;;;14.3;6.4;;;;;;;;;;;;;
2020/12/12 18:11:32;;;;;;;15.3;6;;;;;;;;;;;;;
2020/12/12 18:13:57;;;;;;;7.1;3.9;;;;;;;;;;;;;
2020/12/12 18:16:24;;;;;;;6.5;2.8;;;;;;;;;;;;;
2020/12/12 18:18:49;;;;;;;7.6;4.1;;;;;;;;;;;;;
2020/12/12 18:21:15;;;;;;;11.2;5.2;;;;;;;;;;;;;
2020/12/12 18:23:40;;;;;;;6.8;4.2;;;;;;;;;;;;;
2020/12/12 18:26:05;;;;;;;11.4;5.7;;;;;;;;;;;;;
2020/12/12 18:28:31;;;;;;;15;7.3;;;;;;;;;;;;;
2020/12/12 18:30:56;;;;;;;12.7;6.2;;;;;;;;;;;;;
2020/12/12 18:33:21;;;;;;;9.3;5;;;;;;;;;;;;;
2020/12/12 18:35:46;;;;;;;11.8;4.1;;;;;;;;;;;;;
2020/12/12 18:38:11;;;;;;;9.3;4.4;;;;;;;;;;;;;
2020/12/12 18:40:37;;;;;;;11.8;4.8;;;;;;;;;;;;;
2020/12/12 18:43:02;;;;;;;10.5;5.9;;;;;;;;;;;;;
2020/12/12 18:45:27;;;;;;;16.3;5.7;;;;;;;;;;;;;
2020/12/12 18:47:53;;;;;;;7.1;4.2;;;;;;;;;;;;;
2020/12/12 18:50:18;;;;;;;6.8;3.8;;;;;;;;;;;;;
2020/12/12 18:52:44;;;;;;;8.3;4;;;;;;;;;;;;;
2020/12/12 18:55:09;;;;;;;7.2;4.4;;;;;;;;;;;;;
2020/12/12 18:57:35;;;;;;;7.1;4;;;;;;;;;;;;;
2020/12/12 19:00:00;;;;;;;4.1;2.3;;;;;;;;;;;;;
2020/12/12 19:02:25;;;;;;;4.7;2.7;;;;;;;;;;;;;
2020/12/12 19:04:50;;;;;;;4.7;3;;;;;;;;;;;;;
2020/12/12 19:07:15;;;;;;;5.2;3.5;;;;;;;;;;;;;
2020/12/12 19:09:41;;;;;;;11.7;4.4;;;;;;;;;;;;;
2020/12/12 19:12:06;;;;;;;6.5;3.7;;;;;;;;;;;;;
2020/12/12 19:14:31;;;;;;;8.6;3.3;;;;;;;;;;;;;
2020/12/12 19:16:57;;;;;;;8.9;4.2;;;;;;;;;;;;;
2020/12/12 19:19:23;;;;;;;7.7;3.8;;;;;;;;;;;;;
2020/12/12 19:21:48;;;;;;;5.1;3.4;;;;;;;;;;;;;
2020/12/12 19:24:14;;;;;;;8;3.5;;;;;;;;;;;;;
2020/12/12 19:26:39;;;;;;;9.5;4.3;;;;;;;;;;;;;
2020/12/12 19:29:09;;;;;;;8.4;4.1;;;;;;;;;;;;;
2020/12/12 19:31:31;;;;;;;11.4;4.6;;;;;;;;;;;;;
2020/12/12 19:34:03;;;;;;;8.8;4.5;;;;;;;;;;;;;
2020/12/12 19:36:22;;;;;;;6.4;3.1;;;;;;;;;;;;;
2020/12/12 19:38:49;;;;;;;9.1;4.2;;;;;;;;;;;;;
2020/12/12 19:41:14;;;;;;;8.7;4.3;;;;;;;;;;;;;
2020/12/12 19:43:40;;;;;;;9.5;4.1;;;;;;;;;;;;;
2020/12/12 19:46:05;;;;;;;10.5;4.2;;;;;;;;;;;;;
2020/12/12 19:48:30;;;;;;;9.9;4.7;;;;;;;;;;;;;
2020/12/12 19:50:55;;;;;;;5.7;3.8;;;;;;;;;;;;;
2020/12/12 19:53:21;;;;;;;5.5;3.5;;;;;;;;;;;;;
2020/12/12 19:55:47;;;;;;;8.4;4.3;;;;;;;;;;;;;
2020/12/12 19:58:12;;;;;;;6.5;3.9;;;;;;;;;;;;;
2020/12/12 20:00:38;;;;;;;11.1;5.8;;;;;;;;;;;;;
2020/12/12 20:03:03;;;;;;;6.7;4.5;;;;;;;;;;;;;
2020/12/12 20:05:30;;;;;;;9.4;4.6;;;;;;;;;;;;;
2020/12/12 20:07:54;;;;;;;10.2;4.8;;;;;;;;;;;;;
2020/12/12 20:10:20;;;;;;;5.8;3.7;;;;;;;;;;;;;
2020/12/12 20:12:45;;;;;;;6.1;3.2;;;;;;;;;;;;;
2020/12/12 20:15:13;;;;;;;3;2.4;;;;;;;;;;;;;
2020/12/12 20:17:38;;;;;;;4.6;3.3;;;;;;;;;;;;;
2020/12/12 20:20:03;;;;;;;7.3;4.5;;;;;;;;;;;;;
2020/12/12 20:22:28;;;;;;;8.4;3.7;;;;;;;;;;;;;
2020/12/12 20:24:53;;;;;;;6;3.1;;;;;;;;;;;;;
2020/12/12 20:27:18;;;;;;;7.1;3.7;;;;;;;;;;;;;
2020/12/12 20:29:45;;;;;;;6.3;3.6;;;;;;;;;;;;;